sensor_id;sensor_type;location;lat;lon;timestamp;pressure;altitude;pressure_sealevel;temperature;humidity
4570;BME280;2297;51.442;6.996;2023-06-22T00:00:48;100572.50;;;25.10;35.60
4570;BME280;2297;51.442;6.996;2023-06-22T00:03:16;100593.16;;;25.11;35.65
4570;BME280;2297;51.442;6.996;2023-06-22T00:05:43;100592.31;;;25.11;35.89
4570;BME280;2297;51.442;6.996;2023-06-22T00:08:10;100599.91;;;25.05;35.93
4570;BME280;2297;51.442;6.996;2023-06-22T00:10:36;100593.03;;;25.01;36.16
4570;BME280;2297;51.442;6.996;2023-06-22T00:13:05;100587.38;;;25.04;36.13
4570;BME280;2297;51.442;6.996;2023-06-22T00:15:31;100584.41;;;24.96;36.35
4570;BME280;2297;51.442;6.996;2023-06-22T00:17:58;100581.47;;;24.99;36.56
4570;BME280;2297;51.442;6.996;2023-06-22T00:20:25;100592.41;;;24.98;36.18
4570;BME280;2297;51.442;6.996;2023-06-22T00:22:53;100592.53;;;24.96;36.68
4570;BME280;2297;51.442;6.996;2023-06-22T00:25:19;100593.75;;;24.92;36.64
4570;BME280;2297;51.442;6.996;2023-06-22T00:27:46;100588.56;;;24.89;37.07
4570;BME280;2297;51.442;6.996;2023-06-22T00:30:15;100586.72;;;24.89;36.95
4570;BME280;2297;51.442;6.996;2023-06-22T00:32:41;100593.09;;;24.88;37.12
4570;BME280;2297;51.442;6.996;2023-06-22T00:35:08;100586.84;;;24.88;37.33
4570;BME280;2297;51.442;6.996;2023-06-22T00:37:35;100588.09;;;24.84;37.52
4570;BME280;2297;51.442;6.996;2023-06-22T00:40:02;100583.78;;;24.81;37.38
4570;BME280;2297;51.442;6.996;2023-06-22T00:42:29;100586.69;;;24.78;37.52
4570;BME280;2297;51.442;6.996;2023-06-22T00:44:55;100578.72;;;24.77;37.60
4570;BME280;2297;51.442;6.996;2023-06-22T00:47:24;100583.25;;;24.76;37.98
4570;BME280;2297;51.442;6.996;2023-06-22T00:49:50;100582.63;;;24.72;37.69
4570;BME280;2297;51.442;6.996;2023-06-22T00:52:19;100579.41;;;24.67;38.22
4570;BME280;2297;51.442;6.996;2023-06-22T00:54:47;100581.16;;;24.68;38.11
4570;BME280;2297;51.442;6.996;2023-06-22T00:57:14;100566.88;;;24.66;38.42
4570;BME280;2297;51.442;6.996;2023-06-22T00:59:42;100568.09;;;24.62;38.33
4570;BME280;2297;51.442;6.996;2023-06-22T01:02:09;100573.00;;;24.57;38.71
4570;BME280;2297;51.442;6.996;2023-06-22T01:04:38;100573.00;;;24.57;38.75
4570;BME280;2297;51.442;6.996;2023-06-22T01:07:10;100571.47;;;24.53;38.89
4570;BME280;2297;51.442;6.996;2023-06-22T01:09:45;100571.72;;;24.50;38.75
4570;BME280;2297;51.442;6.996;2023-06-22T01:12:16;100564.59;;;24.49;38.81
4570;BME280;2297;51.442;6.996;2023-06-22T01:14:50;100564.84;;;24.46;39.06
4570;BME280;2297;51.442;6.996;2023-06-22T01:17:19;100560.41;;;24.45;39.23
4570;BME280;2297;51.442;6.996;2023-06-22T01:19:49;100565.94;;;24.43;38.84
4570;BME280;2297;51.442;6.996;2023-06-22T01:22:21;100562.34;;;24.42;38.88
4570;BME280;2297;51.442;6.996;2023-06-22T01:24:55;100568.75;;;24.41;39.06
4570;BME280;2297;51.442;6.996;2023-06-22T01:27:33;100557.97;;;24.41;39.11
4570;BME280;2297;51.442;6.996;2023-06-22T01:30:05;100551.81;;;24.39;39.05
4570;BME280;2297;51.442;6.996;2023-06-22T01:32:37;100558.16;;;24.38;39.14
4570;BME280;2297;51.442;6.996;2023-06-22T01:35:07;100551.06;;;24.37;39.32
4570;BME280;2297;51.442;6.996;2023-06-22T01:37:36;100553.78;;;24.37;39.69
4570;BME280;2297;51.442;6.996;2023-06-22T01:40:05;100546.78;;;24.35;39.76
4570;BME280;2297;51.442;6.996;2023-06-22T01:42:34;100544.19;;;24.33;39.87
4570;BME280;2297;51.442;6.996;2023-06-22T01:45:03;100546.13;;;24.31;39.83
4570;BME280;2297;51.442;6.996;2023-06-22T01:47:31;100546.25;;;24.30;40.01
4570;BME280;2297;51.442;6.996;2023-06-22T01:49:58;100548.31;;;24.26;40.53
4570;BME280;2297;51.442;6.996;2023-06-22T01:52:25;100551.97;;;24.25;40.63
4570;BME280;2297;51.442;6.996;2023-06-22T01:54:51;100548.56;;;24.23;40.86
4570;BME280;2297;51.442;6.996;2023-06-22T01:57:18;100548.38;;;24.13;40.87
4570;BME280;2297;51.442;6.996;2023-06-22T01:59:49;100547.50;;;24.13;41.31
4570;BME280;2297;51.442;6.996;2023-06-22T02:02:21;100551.19;;;24.12;41.40
4570;BME280;2297;51.442;6.996;2023-06-22T02:04:57;100550.66;;;24.06;41.55
4570;BME280;2297;51.442;6.996;2023-06-22T02:07:28;100556.81;;;24.08;41.73
4570;BME280;2297;51.442;6.996;2023-06-22T02:09:58;100550.53;;;24.08;41.44
4570;BME280;2297;51.442;6.996;2023-06-22T02:12:26;100559.63;;;24.07;41.79
4570;BME280;2297;51.442;6.996;2023-06-22T02:14:54;100546.25;;;24.05;41.95
4570;BME280;2297;51.442;6.996;2023-06-22T02:17:25;100547.44;;;24.01;42.04
4570;BME280;2297;51.442;6.996;2023-06-22T02:19:52;100553.06;;;23.98;42.20
4570;BME280;2297;51.442;6.996;2023-06-22T02:22:19;100553.06;;;23.98;42.07
4570;BME280;2297;51.442;6.996;2023-06-22T02:24:45;100541.56;;;23.96;42.08
4570;BME280;2297;51.442;6.996;2023-06-22T02:27:12;100538.06;;;23.94;42.19
4570;BME280;2297;51.442;6.996;2023-06-22T02:29:38;100540.22;;;23.89;41.95
4570;BME280;2297;51.442;6.996;2023-06-22T02:32:06;100542.19;;;23.87;42.33
4570;BME280;2297;51.442;6.996;2023-06-22T02:34:34;100540.47;;;23.86;41.90
4570;BME280;2297;51.442;6.996;2023-06-22T02:37:02;100537.78;;;23.86;42.09
4570;BME280;2297;51.442;6.996;2023-06-22T02:39:28;100535.28;;;23.83;42.25
4570;BME280;2297;51.442;6.996;2023-06-22T02:41:56;100537.25;;;23.81;42.42
4570;BME280;2297;51.442;6.996;2023-06-22T02:44:22;100534.66;;;23.79;42.29
4570;BME280;2297;51.442;6.996;2023-06-22T02:46:49;100529.28;;;23.79;42.47
4570;BME280;2297;51.442;6.996;2023-06-22T02:49:16;100528.41;;;23.79;42.29
4570;BME280;2297;51.442;6.996;2023-06-22T02:51:45;100523.78;;;23.81;42.12
4570;BME280;2297;51.442;6.996;2023-06-22T02:54:12;100524.97;;;23.76;42.51
4570;BME280;2297;51.442;6.996;2023-06-22T02:56:39;100530.38;;;23.76;42.43
4570;BME280;2297;51.442;6.996;2023-06-22T02:59:09;100522.47;;;23.73;42.31
4570;BME280;2297;51.442;6.996;2023-06-22T03:01:36;100510.97;;;23.71;42.43
4570;BME280;2297;51.442;6.996;2023-06-22T03:04:05;100514.63;;;23.70;42.52
4570;BME280;2297;51.442;6.996;2023-06-22T03:06:32;100512.91;;;23.69;42.64
4570;BME280;2297;51.442;6.996;2023-06-22T03:09:02;100512.91;;;23.69;42.69
4570;BME280;2297;51.442;6.996;2023-06-22T03:11:30;100510.69;;;23.63;42.74
4570;BME280;2297;51.442;6.996;2023-06-22T03:13:57;100506.25;;;23.62;42.69
4570;BME280;2297;51.442;6.996;2023-06-22T03:16:24;100505.50;;;23.60;42.84
4570;BME280;2297;51.442;6.996;2023-06-22T03:18:50;100507.44;;;23.58;42.91
4570;BME280;2297;51.442;6.996;2023-06-22T03:21:18;100501.31;;;23.56;43.09
4570;BME280;2297;51.442;6.996;2023-06-22T03:23:45;100504.97;;;23.55;43.26
4570;BME280;2297;51.442;6.996;2023-06-22T03:26:16;100501.53;;;23.53;43.22
4570;BME280;2297;51.442;6.996;2023-06-22T03:28:42;100500.03;;;23.49;43.23
4570;BME280;2297;51.442;6.996;2023-06-22T03:31:09;100498.75;;;23.41;43.56
4570;BME280;2297;51.442;6.996;2023-06-22T03:33:36;100498.00;;;23.39;43.47
4570;BME280;2297;51.442;6.996;2023-06-22T03:36:02;100504.38;;;23.38;43.77
4570;BME280;2297;51.442;6.996;2023-06-22T03:38:29;100502.00;;;23.34;43.73
4570;BME280;2297;51.442;6.996;2023-06-22T03:40:56;100495.75;;;23.33;43.96
4570;BME280;2297;51.442;6.996;2023-06-22T03:43:24;100504.59;;;23.35;43.85
4570;BME280;2297;51.442;6.996;2023-06-22T03:45:50;100490.13;;;23.36;44.03
4570;BME280;2297;51.442;6.996;2023-06-22T03:48:17;100487.56;;;23.35;44.10
4570;BME280;2297;51.442;6.996;2023-06-22T03:50:44;100479.59;;;23.33;44.28
4570;BME280;2297;51.442;6.996;2023-06-22T03:53:10;100471.50;;;23.33;43.98
4570;BME280;2297;51.442;6.996;2023-06-22T03:55:42;100469.66;;;23.34;44.11
4570;BME280;2297;51.442;6.996;2023-06-22T03:58:13;100474.84;;;23.37;44.03
4570;BME280;2297;51.442;6.996;2023-06-22T04:00:41;100477.53;;;23.37;44.16
4570;BME280;2297;51.442;6.996;2023-06-22T04:03:08;100474.19;;;23.33;44.27
4570;BME280;2297;51.442;6.996;2023-06-22T04:05:35;100478.84;;;23.31;44.09
4570;BME280;2297;51.442;6.996;2023-06-22T04:08:01;100479.59;;;23.33;44.26
4570;BME280;2297;51.442;6.996;2023-06-22T04:10:28;100480.22;;;23.37;44.16
4570;BME280;2297;51.442;6.996;2023-06-22T04:12:54;100477.41;;;23.38;44.38
4570;BME280;2297;51.442;6.996;2023-06-22T04:15:21;100480.34;;;23.35;44.38
4570;BME280;2297;51.442;6.996;2023-06-22T04:17:49;100483.78;;;23.37;44.12
4570;BME280;2297;51.442;6.996;2023-06-22T04:20:16;100470.31;;;23.37;44.36
4570;BME280;2297;51.442;6.996;2023-06-22T04:22:42;100473.97;;;23.36;44.11
4570;BME280;2297;51.442;6.996;2023-06-22T04:25:10;100486.69;;;23.34;44.15
4570;BME280;2297;51.442;6.996;2023-06-22T04:27:37;100478.38;;;23.37;44.25
4570;BME280;2297;51.442;6.996;2023-06-22T04:30:07;100476.34;;;23.41;43.80
4570;BME280;2297;51.442;6.996;2023-06-22T04:32:34;100473.53;;;23.42;43.99
4570;BME280;2297;51.442;6.996;2023-06-22T04:35:04;100475.91;;;23.47;44.08
4570;BME280;2297;51.442;6.996;2023-06-22T04:37:31;100482.16;;;23.48;43.92
4570;BME280;2297;51.442;6.996;2023-06-22T04:39:58;100488.38;;;23.48;44.20
4570;BME280;2297;51.442;6.996;2023-06-22T04:42:26;100483.00;;;23.48;43.98
4570;BME280;2297;51.442;6.996;2023-06-22T04:44:52;100492.28;;;23.44;44.30
4570;BME280;2297;51.442;6.996;2023-06-22T04:47:19;100486.03;;;23.43;44.48
4570;BME280;2297;51.442;6.996;2023-06-22T04:49:46;100486.03;;;23.43;44.33
4570;BME280;2297;51.442;6.996;2023-06-22T04:52:14;100487.75;;;23.45;44.24
4570;BME280;2297;51.442;6.996;2023-06-22T04:54:43;100473.53;;;23.42;44.26
4570;BME280;2297;51.442;6.996;2023-06-22T04:57:13;100475.25;;;23.43;44.16
4570;BME280;2297;51.442;6.996;2023-06-22T04:59:40;100471.59;;;23.45;44.60
4570;BME280;2297;51.442;6.996;2023-06-22T05:02:07;100476.22;;;23.42;44.59
4570;BME280;2297;51.442;6.996;2023-06-22T05:04:34;100477.19;;;23.41;44.55
4570;BME280;2297;51.442;6.996;2023-06-22T05:07:04;100471.81;;;23.41;44.49
4570;BME280;2297;51.442;6.996;2023-06-22T05:09:32;100474.63;;;23.40;44.84
4570;BME280;2297;51.442;6.996;2023-06-22T05:12:00;100478.63;;;23.34;44.89
4570;BME280;2297;51.442;6.996;2023-06-22T05:14:28;100467.97;;;23.33;45.05
4570;BME280;2297;51.442;6.996;2023-06-22T05:16:54;100468.81;;;23.33;44.96
4570;BME280;2297;51.442;6.996;2023-06-22T05:19:24;100469.00;;;23.30;44.97
4570;BME280;2297;51.442;6.996;2023-06-22T05:21:50;100474.41;;;23.30;45.37
4570;BME280;2297;51.442;6.996;2023-06-22T05:24:17;100479.03;;;23.28;45.14
4570;BME280;2297;51.442;6.996;2023-06-22T05:26:45;100472.91;;;23.26;45.59
4570;BME280;2297;51.442;6.996;2023-06-22T05:29:11;100478.28;;;23.26;45.84
4570;BME280;2297;51.442;6.996;2023-06-22T05:31:38;100480.97;;;23.26;45.87
4570;BME280;2297;51.442;6.996;2023-06-22T05:34:05;100475.06;;;23.21;46.46
4570;BME280;2297;51.442;6.996;2023-06-22T05:36:32;100474.97;;;23.09;46.67
4570;BME280;2297;51.442;6.996;2023-06-22T05:38:59;100487.34;;;22.99;47.22
4570;BME280;2297;51.442;6.996;2023-06-22T05:41:25;100491.03;;;22.98;47.20
4570;BME280;2297;51.442;6.996;2023-06-22T05:43:53;100485.31;;;22.90;47.52
4570;BME280;2297;51.442;6.996;2023-06-22T05:46:20;100488.63;;;22.81;47.85
4570;BME280;2297;51.442;6.996;2023-06-22T05:48:47;100490.38;;;22.82;47.68
4570;BME280;2297;51.442;6.996;2023-06-22T05:51:13;100491.25;;;22.82;47.62
4570;BME280;2297;51.442;6.996;2023-06-22T05:53:40;100493.06;;;22.82;47.70
4570;BME280;2297;51.442;6.996;2023-06-22T05:56:06;100502.88;;;22.83;48.04
4570;BME280;2297;51.442;6.996;2023-06-22T05:58:33;100499.22;;;22.84;48.18
4570;BME280;2297;51.442;6.996;2023-06-22T06:01:01;100502.75;;;22.84;48.63
4570;BME280;2297;51.442;6.996;2023-06-22T06:03:28;100507.28;;;22.84;48.44
4570;BME280;2297;51.442;6.996;2023-06-22T06:05:55;100505.25;;;22.87;48.50
4570;BME280;2297;51.442;6.996;2023-06-22T06:08:21;100512.78;;;22.95;48.83
4570;BME280;2297;51.442;6.996;2023-06-22T06:10:48;100512.56;;;22.98;48.57
4570;BME280;2297;51.442;6.996;2023-06-22T06:13:15;100507.91;;;23.00;49.10
4570;BME280;2297;51.442;6.996;2023-06-22T06:15:41;100508.03;;;22.99;48.87
4570;BME280;2297;51.442;6.996;2023-06-22T06:18:09;100495.75;;;22.95;49.25
4570;BME280;2297;51.442;6.996;2023-06-22T06:20:36;100493.38;;;23.03;49.54
4570;BME280;2297;51.442;6.996;2023-06-22T06:23:03;100498.34;;;23.09;49.34
4570;BME280;2297;51.442;6.996;2023-06-22T06:25:29;100492.72;;;23.12;49.28
4570;BME280;2297;51.442;6.996;2023-06-22T06:27:56;100487.22;;;23.14;49.13
4570;BME280;2297;51.442;6.996;2023-06-22T06:30:22;100481.09;;;23.12;49.12
4570;BME280;2297;51.442;6.996;2023-06-22T06:32:49;100481.72;;;23.15;49.24
4570;BME280;2297;51.442;6.996;2023-06-22T06:35:17;100478.72;;;23.20;49.39
4570;BME280;2297;51.442;6.996;2023-06-22T06:37:47;100483.69;;;23.26;49.40
4570;BME280;2297;51.442;6.996;2023-06-22T06:40:15;100483.44;;;23.29;49.54
4570;BME280;2297;51.442;6.996;2023-06-22T06:42:43;100492.31;;;23.31;49.13
4570;BME280;2297;51.442;6.996;2023-06-22T06:45:11;100493.16;;;23.32;49.17
4570;BME280;2297;51.442;6.996;2023-06-22T06:47:38;100495.00;;;23.31;49.10
4570;BME280;2297;51.442;6.996;2023-06-22T06:50:06;100494.56;;;23.37;49.24
4570;BME280;2297;51.442;6.996;2023-06-22T06:52:34;100493.59;;;23.38;48.83
4570;BME280;2297;51.442;6.996;2023-06-22T06:55:01;100486.88;;;23.44;48.77
4570;BME280;2297;51.442;6.996;2023-06-22T06:57:30;100487.75;;;23.45;48.85
4570;BME280;2297;51.442;6.996;2023-06-22T06:59:59;100489.25;;;23.49;48.51
4570;BME280;2297;51.442;6.996;2023-06-22T07:03:03;100488.50;;;23.47;47.89
4570;BME280;2297;51.442;6.996;2023-06-22T07:05:29;100479.09;;;23.52;48.11
4570;BME280;2297;51.442;6.996;2023-06-22T07:07:57;100474.16;;;23.59;48.01
4570;BME280;2297;51.442;6.996;2023-06-22T07:10:24;100477.34;;;23.64;47.84
4570;BME280;2297;51.442;6.996;2023-06-22T07:12:51;100473.47;;;23.68;48.17
4570;BME280;2297;51.442;6.996;2023-06-22T07:15:18;100467.06;;;23.69;47.94
4570;BME280;2297;51.442;6.996;2023-06-22T07:17:45;100470.41;;;23.73;47.93
4570;BME280;2297;51.442;6.996;2023-06-22T07:20:12;100470.28;;;23.74;47.52
4570;BME280;2297;51.442;6.996;2023-06-22T07:22:39;100467.72;;;23.73;47.52
4570;BME280;2297;51.442;6.996;2023-06-22T07:25:08;100460.47;;;23.73;47.11
4570;BME280;2297;51.442;6.996;2023-06-22T07:27:36;100466.50;;;23.77;47.54
4570;BME280;2297;51.442;6.996;2023-06-22T07:30:05;100476.34;;;23.78;47.34
4570;BME280;2297;51.442;6.996;2023-06-22T07:32:32;100490.66;;;23.79;47.47
4570;BME280;2297;51.442;6.996;2023-06-22T07:34:58;100484.84;;;23.72;47.66
4570;BME280;2297;51.442;6.996;2023-06-22T07:37:25;100459.88;;;23.70;48.22
4570;BME280;2297;51.442;6.996;2023-06-22T07:39:53;100471.25;;;23.73;49.77
4570;BME280;2297;51.442;6.996;2023-06-22T07:42:25;100456.59;;;23.78;51.22
4570;BME280;2297;51.442;6.996;2023-06-22T07:44:51;100455.31;;;23.70;51.44
4570;BME280;2297;51.442;6.996;2023-06-22T07:47:18;100450.19;;;23.67;51.06
4570;BME280;2297;51.442;6.996;2023-06-22T07:49:45;100443.06;;;23.66;51.40
4570;BME280;2297;51.442;6.996;2023-06-22T07:52:12;100449.53;;;23.64;51.05
4570;BME280;2297;51.442;6.996;2023-06-22T07:54:38;100456.28;;;23.69;51.98
4570;BME280;2297;51.442;6.996;2023-06-22T07:57:05;100456.09;;;23.72;51.69
4570;BME280;2297;51.442;6.996;2023-06-22T07:59:33;100453.16;;;23.75;51.29
4570;BME280;2297;51.442;6.996;2023-06-22T08:02:01;100448.41;;;23.79;51.38
4570;BME280;2297;51.442;6.996;2023-06-22T08:04:29;100431.13;;;23.82;51.33
4570;BME280;2297;51.442;6.996;2023-06-22T08:06:57;100418.88;;;23.78;51.52
4570;BME280;2297;51.442;6.996;2023-06-22T08:09:23;100418.63;;;23.81;51.69
4570;BME280;2297;51.442;6.996;2023-06-22T08:11:50;100405.38;;;23.78;51.89
4570;BME280;2297;51.442;6.996;2023-06-22T08:14:16;100399.47;;;23.72;52.18
4570;BME280;2297;51.442;6.996;2023-06-22T08:16:44;100388.69;;;23.72;52.60
4570;BME280;2297;51.442;6.996;2023-06-22T08:19:11;100387.94;;;23.70;52.50
4570;BME280;2297;51.442;6.996;2023-06-22T08:21:38;100377.72;;;23.63;52.82
4570;BME280;2297;51.442;6.996;2023-06-22T08:24:05;100386.19;;;23.58;52.87
4570;BME280;2297;51.442;6.996;2023-06-22T08:26:33;100370.00;;;23.58;52.67
4570;BME280;2297;51.442;6.996;2023-06-22T08:29:01;100359.75;;;23.63;52.73
4570;BME280;2297;51.442;6.996;2023-06-22T08:31:28;100358.94;;;23.74;52.34
4570;BME280;2297;51.442;6.996;2023-06-22T08:33:56;100356.09;;;23.75;52.26
4570;BME280;2297;51.442;6.996;2023-06-22T08:36:23;100357.47;;;23.81;52.16
4570;BME280;2297;51.442;6.996;2023-06-22T08:38:50;100352.34;;;23.89;51.74
4570;BME280;2297;51.442;6.996;2023-06-22T08:41:17;100350.78;;;23.87;51.38
4570;BME280;2297;51.442;6.996;2023-06-22T08:43:44;100354.69;;;23.94;51.44
4570;BME280;2297;51.442;6.996;2023-06-22T08:46:11;100357.31;;;23.96;50.71
4570;BME280;2297;51.442;6.996;2023-06-22T08:48:37;100356.88;;;23.89;50.92
4570;BME280;2297;51.442;6.996;2023-06-22T08:51:33;100358.84;;;23.87;51.26
4570;BME280;2297;51.442;6.996;2023-06-22T08:54:00;100359.72;;;23.87;51.12
4570;BME280;2297;51.442;6.996;2023-06-22T08:56:26;100359.59;;;23.89;50.86
4570;BME280;2297;51.442;6.996;2023-06-22T08:58:53;100361.06;;;23.93;51.28
4570;BME280;2297;51.442;6.996;2023-06-22T09:01:20;100360.09;;;23.94;50.80
4570;BME280;2297;51.442;6.996;2023-06-22T09:03:47;100347.41;;;23.96;50.72
4570;BME280;2297;51.442;6.996;2023-06-22T09:06:20;100349.09;;;23.97;50.47
4570;BME280;2297;51.442;6.996;2023-06-22T09:08:48;100344.78;;;23.95;50.52
4570;BME280;2297;51.442;6.996;2023-06-22T09:11:15;100344.16;;;23.91;50.65
4570;BME280;2297;51.442;6.996;2023-06-22T09:13:41;100343.41;;;23.89;51.28
4570;BME280;2297;51.442;6.996;2023-06-22T09:16:08;100345.41;;;23.98;51.31
4570;BME280;2297;51.442;6.996;2023-06-22T09:18:35;100349.59;;;24.02;51.29
4570;BME280;2297;51.442;6.996;2023-06-22T09:21:02;100349.38;;;24.17;50.81
4570;BME280;2297;51.442;6.996;2023-06-22T09:23:29;100332.22;;;24.29;50.71
4570;BME280;2297;51.442;6.996;2023-06-22T09:25:57;100334.47;;;24.47;49.83
4570;BME280;2297;51.442;6.996;2023-06-22T09:28:24;100338.44;;;24.65;49.40
4570;BME280;2297;51.442;6.996;2023-06-22T09:30:51;100337.78;;;24.84;49.01
4570;BME280;2297;51.442;6.996;2023-06-22T09:33:24;100332.97;;;25.11;48.83
4570;BME280;2297;51.442;6.996;2023-06-22T09:35:51;100331.22;;;25.32;47.81
4570;BME280;2297;51.442;6.996;2023-06-22T09:38:17;100326.75;;;25.42;46.99
4570;BME280;2297;51.442;6.996;2023-06-22T09:40:44;100327.19;;;25.59;46.75
4570;BME280;2297;51.442;6.996;2023-06-22T09:43:12;100328.72;;;25.73;46.51
4570;BME280;2297;51.442;6.996;2023-06-22T09:45:39;100330.06;;;25.79;46.32
4570;BME280;2297;51.442;6.996;2023-06-22T09:48:05;100325.88;;;25.74;46.40
4570;BME280;2297;51.442;6.996;2023-06-22T09:50:32;100322.72;;;25.69;46.51
4570;BME280;2297;51.442;6.996;2023-06-22T09:52:58;100321.75;;;25.59;46.67
4570;BME280;2297;51.442;6.996;2023-06-22T09:55:25;100314.13;;;25.64;46.14
4570;BME280;2297;51.442;6.996;2023-06-22T09:57:52;100311.88;;;25.81;46.11
4570;BME280;2297;51.442;6.996;2023-06-22T10:00:21;100310.41;;;25.98;46.13
4570;BME280;2297;51.442;6.996;2023-06-22T10:02:48;100303.88;;;26.00;45.67
4570;BME280;2297;51.442;6.996;2023-06-22T10:05:15;100289.44;;;26.11;46.02
4570;BME280;2297;51.442;6.996;2023-06-22T10:07:42;100298.75;;;26.28;45.13
4570;BME280;2297;51.442;6.996;2023-06-22T10:10:09;100297.28;;;26.35;44.45
4570;BME280;2297;51.442;6.996;2023-06-22T10:12:37;100290.75;;;26.48;44.52
4570;BME280;2297;51.442;6.996;2023-06-22T10:15:05;100293.38;;;26.59;44.35
4570;BME280;2297;51.442;6.996;2023-06-22T10:17:33;100289.13;;;26.66;44.08
4570;BME280;2297;51.442;6.996;2023-06-22T10:20:00;100289.84;;;26.78;43.86
4570;BME280;2297;51.442;6.996;2023-06-22T10:22:31;100287.75;;;26.82;43.23
4570;BME280;2297;51.442;6.996;2023-06-22T10:24:57;100286.94;;;26.91;43.40
4570;BME280;2297;51.442;6.996;2023-06-22T10:27:24;100284.09;;;26.93;43.56
4570;BME280;2297;51.442;6.996;2023-06-22T10:29:51;100283.94;;;26.94;43.08
4570;BME280;2297;51.442;6.996;2023-06-22T10:32:17;100274.81;;;26.95;42.57
4570;BME280;2297;51.442;6.996;2023-06-22T10:34:45;100277.81;;;27.02;43.07
4570;BME280;2297;51.442;6.996;2023-06-22T10:37:12;100275.56;;;26.97;42.63
4570;BME280;2297;51.442;6.996;2023-06-22T10:39:38;100275.25;;;27.00;42.94
4570;BME280;2297;51.442;6.996;2023-06-22T10:42:05;100277.69;;;27.03;42.64
4570;BME280;2297;51.442;6.996;2023-06-22T10:44:32;100274.97;;;27.03;42.46
4570;BME280;2297;51.442;6.996;2023-06-22T10:46:59;100271.13;;;26.96;42.80
4570;BME280;2297;51.442;6.996;2023-06-22T10:49:41;100283.63;;;26.47;43.65
4570;BME280;2297;51.442;6.996;2023-06-22T10:52:09;100280.53;;;26.61;43.63
4570;BME280;2297;51.442;6.996;2023-06-22T10:54:37;100282.56;;;26.59;43.88
4570;BME280;2297;51.442;6.996;2023-06-22T10:57:04;100299.78;;;26.58;43.81
4570;BME280;2297;51.442;6.996;2023-06-22T10:59:31;100303.59;;;26.46;44.79
4570;BME280;2297;51.442;6.996;2023-06-22T11:01:58;100309.81;;;26.36;44.25
4570;BME280;2297;51.442;6.996;2023-06-22T11:04:24;100316.00;;;26.27;45.26
4570;BME280;2297;51.442;6.996;2023-06-22T11:06:52;100320.78;;;26.14;45.63
4570;BME280;2297;51.442;6.996;2023-06-22T11:09:20;100318.47;;;26.09;45.59
4570;BME280;2297;51.442;6.996;2023-06-22T11:11:47;100321.56;;;26.04;46.63
4570;BME280;2297;51.442;6.996;2023-06-22T11:14:14;100318.66;;;25.96;48.18
4570;BME280;2297;51.442;6.996;2023-06-22T11:16:40;100314.03;;;25.87;48.60
4570;BME280;2297;51.442;6.996;2023-06-22T11:19:07;100314.81;;;25.78;49.36
4570;BME280;2297;51.442;6.996;2023-06-22T11:21:34;100307.09;;;25.73;49.98
4570;BME280;2297;51.442;6.996;2023-06-22T11:24:00;100304.75;;;25.68;50.94
4570;BME280;2297;51.442;6.996;2023-06-22T11:26:29;100307.00;;;25.63;51.22
4570;BME280;2297;51.442;6.996;2023-06-22T11:28:57;100309.50;;;25.55;51.74
4570;BME280;2297;51.442;6.996;2023-06-22T11:31:24;100315.69;;;25.46;52.59
4570;BME280;2297;51.442;6.996;2023-06-22T11:33:50;100314.72;;;25.35;52.93
4570;BME280;2297;51.442;6.996;2023-06-22T11:36:17;100322.41;;;25.30;54.53
4570;BME280;2297;51.442;6.996;2023-06-22T11:38:44;100329.03;;;25.15;54.77
4570;BME280;2297;51.442;6.996;2023-06-22T11:41:11;100327.56;;;25.11;55.61
4570;BME280;2297;51.442;6.996;2023-06-22T11:43:39;100330.06;;;25.02;56.29
4570;BME280;2297;51.442;6.996;2023-06-22T11:46:06;100328.09;;;24.93;57.22
4570;BME280;2297;51.442;6.996;2023-06-22T11:48:32;100329.44;;;24.87;57.16
4570;BME280;2297;51.442;6.996;2023-06-22T11:50:59;100319.66;;;24.86;57.66
4570;BME280;2297;51.442;6.996;2023-06-22T11:53:28;100311.28;;;24.78;58.09
4570;BME280;2297;51.442;6.996;2023-06-22T11:55:54;100289.31;;;24.71;58.34
4570;BME280;2297;51.442;6.996;2023-06-22T11:58:22;100286.13;;;24.66;58.65
4570;BME280;2297;51.442;6.996;2023-06-22T12:00:50;100263.69;;;24.66;59.11
4570;BME280;2297;51.442;6.996;2023-06-22T12:03:17;100247.88;;;24.61;59.19
4570;BME280;2297;51.442;6.996;2023-06-22T12:05:44;100247.16;;;24.59;59.48
4570;BME280;2297;51.442;6.996;2023-06-22T12:08:10;100234.09;;;24.53;59.96
4570;BME280;2297;51.442;6.996;2023-06-22T12:10:38;100220.41;;;24.56;60.38
4570;BME280;2297;51.442;6.996;2023-06-22T12:13:05;100207.00;;;24.54;60.69
4570;BME280;2297;51.442;6.996;2023-06-22T12:15:32;100205.91;;;24.46;61.00
4570;BME280;2297;51.442;6.996;2023-06-22T12:18:00;100195.13;;;24.46;60.57
4570;BME280;2297;51.442;6.996;2023-06-22T12:20:27;100187.78;;;24.36;60.67
4570;BME280;2297;51.442;6.996;2023-06-22T12:22:54;100173.81;;;24.31;60.70
4570;BME280;2297;51.442;6.996;2023-06-22T12:25:21;100165.00;;;24.06;60.48
4570;BME280;2297;51.442;6.996;2023-06-22T12:27:48;100151.63;;;24.05;60.71
4570;BME280;2297;51.442;6.996;2023-06-22T12:30:15;100142.22;;;23.99;61.18
4570;BME280;2297;51.442;6.996;2023-06-22T12:32:42;100141.81;;;24.04;61.01
4570;BME280;2297;51.442;6.996;2023-06-22T12:35:10;100128.22;;;24.17;61.38
4570;BME280;2297;51.442;6.996;2023-06-22T12:37:40;100140.00;;;24.04;61.45
4570;BME280;2297;51.442;6.996;2023-06-22T12:40:07;100138.75;;;23.97;61.78
4570;BME280;2297;51.442;6.996;2023-06-22T12:42:34;100140.22;;;24.01;61.31
4570;BME280;2297;51.442;6.996;2023-06-22T12:45:01;100139.88;;;24.06;61.31
4570;BME280;2297;51.442;6.996;2023-06-22T12:47:27;100149.91;;;24.04;61.51
4570;BME280;2297;51.442;6.996;2023-06-22T12:49:54;100146.38;;;24.03;61.18
4570;BME280;2297;51.442;6.996;2023-06-22T12:52:22;100147.34;;;24.02;61.19
4570;BME280;2297;51.442;6.996;2023-06-22T12:54:49;100143.66;;;24.03;61.23
4570;BME280;2297;51.442;6.996;2023-06-22T13:00:38;100118.56;;;24.03;61.81
4570;BME280;2297;51.442;6.996;2023-06-22T13:03:05;100124.31;;;23.98;62.20
4570;BME280;2297;51.442;6.996;2023-06-22T13:05:31;100124.31;;;23.98;62.45
4570;BME280;2297;51.442;6.996;2023-06-22T13:08:01;100122.59;;;23.97;62.73
4570;BME280;2297;51.442;6.996;2023-06-22T13:10:28;100117.19;;;23.97;62.64
4570;BME280;2297;51.442;6.996;2023-06-22T13:12:54;100116.97;;;24.00;62.57
4570;BME280;2297;51.442;6.996;2023-06-22T13:15:26;100110.06;;;24.07;62.67